createdAt,value
2023-05-04T00:01:22.694Z,79.20
2023-05-04T00:03:49.787Z,56.50
2023-05-04T00:06:16.907Z,15.60
2023-05-04T00:08:43.784Z,11.00
2023-05-04T00:11:10.626Z,15.80
2023-05-04T00:13:37.530Z,29.30
2023-05-04T00:16:04.620Z,19.50
2023-05-04T00:18:31.520Z,19.90
2023-05-04T00:20:58.463Z,10.40
2023-05-04T00:23:25.348Z,5.90
2023-05-04T00:25:52.246Z,4.30
2023-05-04T00:28:19.589Z,5.90
2023-05-04T00:30:46.722Z,5.30
2023-05-04T00:33:13.594Z,4.40
2023-05-04T00:35:40.942Z,8.60
2023-05-04T00:38:08.037Z,11.90
2023-05-04T00:40:35.407Z,37.90
2023-05-04T00:43:02.369Z,29.90
2023-05-04T00:45:29.281Z,29.90
2023-05-04T00:47:56.257Z,41.70
2023-05-04T00:50:23.226Z,54.20
2023-05-04T00:52:50.228Z,60.60
2023-05-04T00:55:17.063Z,64.90
2023-05-04T00:57:43.976Z,58.50
2023-05-04T01:00:13.407Z,41.50
2023-05-04T01:02:41.091Z,39.20
2023-05-04T01:05:08.246Z,32.90
2023-05-04T01:07:55.423Z,32.10
2023-05-04T01:10:24.161Z,45.30
2023-05-04T01:13:01.045Z,40.70
2023-05-04T01:15:28.133Z,44.40
2023-05-04T01:17:56.066Z,39.80
2023-05-04T01:20:22.925Z,49.40
2023-05-04T01:22:49.875Z,38.90
2023-05-04T01:25:17.728Z,31.10
2023-05-04T01:27:52.666Z,34.90
2023-05-04T01:30:42.901Z,47.20
2023-05-04T01:33:09.879Z,56.60
2023-05-04T01:35:37.342Z,50.50
2023-05-04T01:38:04.258Z,92.30
2023-05-04T01:40:31.169Z,54.60
2023-05-04T01:42:58.008Z,53.30
2023-05-04T01:45:24.875Z,58.70
2023-05-04T01:47:51.799Z,45.80
2023-05-04T01:50:18.755Z,19.80
2023-05-04T01:52:46.171Z,19.40
2023-05-04T01:55:13.143Z,27.60
2023-05-04T01:57:40.078Z,42.10
2023-05-04T02:00:07.384Z,39.30
2023-05-04T02:02:43.684Z,36.10
2023-05-04T02:05:12.300Z,41.50
2023-05-04T02:07:39.148Z,46.90
2023-05-04T02:10:08.864Z,40.80
2023-05-04T02:12:35.841Z,55.90
2023-05-04T02:15:03.244Z,66.60
2023-05-04T02:17:31.170Z,37.20
2023-05-04T02:19:58.060Z,29.70
2023-05-04T02:22:24.892Z,38.50
2023-05-04T02:24:53.058Z,54.40
2023-05-04T02:27:20.675Z,59.30
2023-05-04T02:29:47.533Z,51.40
2023-05-04T02:32:14.474Z,49.20
2023-05-04T02:34:41.288Z,44.60
2023-05-04T02:37:08.215Z,49.10
2023-05-04T02:39:35.198Z,35.60
2023-05-04T02:42:03.122Z,24.30
2023-05-04T02:44:30.004Z,24.40
2023-05-04T02:46:57.057Z,23.70
2023-05-04T02:49:23.908Z,21.60
2023-05-04T02:51:51.024Z,20.40
2023-05-04T02:54:17.966Z,16.90
2023-05-04T02:56:44.862Z,12.70
2023-05-04T02:59:11.781Z,16.10
2023-05-04T03:01:38.799Z,13.60
2023-05-04T03:04:06.934Z,13.10
2023-05-04T03:06:33.969Z,14.30
2023-05-04T03:09:00.865Z,13.00
2023-05-04T03:11:27.771Z,16.10
2023-05-04T03:13:54.817Z,12.40
2023-05-04T03:16:21.983Z,10.80
2023-05-04T03:21:35.268Z,13.20
2023-05-04T03:24:02.181Z,12.50
2023-05-04T03:26:29.117Z,13.60
2023-05-04T03:28:56.124Z,11.40
2023-05-04T03:31:23.287Z,9.50
2023-05-04T03:33:51.753Z,10.90
2023-05-04T03:36:19.013Z,12.50
2023-05-04T03:38:45.965Z,11.50
2023-05-04T03:41:13.167Z,12.10
2023-05-04T03:43:40.112Z,8.80
2023-05-04T03:46:06.981Z,11.50
2023-05-04T03:48:33.881Z,11.40
2023-05-04T03:51:00.819Z,9.70
2023-05-04T03:53:27.672Z,15.20
2023-05-04T03:55:54.555Z,12.30
2023-05-04T03:58:21.674Z,13.70
2023-05-04T04:00:48.968Z,14.10
2023-05-04T04:03:16.119Z,15.80
2023-05-04T04:05:43.298Z,13.10
2023-05-04T04:08:10.238Z,11.00
2023-05-04T04:10:37.107Z,11.00
2023-05-04T04:13:04.134Z,13.00
2023-05-04T04:15:31.051Z,12.50
2023-05-04T04:17:58.164Z,14.50
2023-05-04T04:20:25.279Z,12.60
2023-05-04T04:22:52.212Z,12.30
2023-05-04T04:25:19.186Z,12.10
2023-05-04T04:27:46.293Z,9.60
2023-05-04T04:30:14.128Z,14.10
2023-05-04T04:32:41.277Z,10.70
2023-05-04T04:35:08.537Z,9.90
2023-05-04T04:37:35.413Z,8.90
2023-05-04T04:40:02.719Z,13.80
2023-05-04T04:44:33.043Z,11.30
2023-05-04T04:46:59.926Z,9.80
2023-05-04T04:49:27.620Z,12.20
2023-05-04T04:51:55.743Z,13.20
2023-05-04T04:54:22.618Z,14.90
2023-05-04T04:56:49.477Z,12.40
2023-05-04T04:59:16.792Z,13.50
2023-05-04T05:01:43.681Z,14.30
2023-05-04T05:04:10.575Z,13.50
2023-05-04T05:06:37.845Z,15.60
2023-05-04T05:09:04.719Z,18.80
2023-05-04T05:11:32.583Z,15.60
2023-05-04T05:14:00.037Z,15.00
2023-05-04T05:16:27.167Z,13.10
2023-05-04T05:18:54.169Z,16.30
2023-05-04T05:21:21.095Z,16.40
2023-05-04T05:23:47.967Z,17.60
2023-05-04T05:26:14.885Z,19.50
2023-05-04T05:28:42.281Z,20.00
2023-05-04T05:31:09.784Z,18.40
2023-05-04T05:33:36.813Z,17.90
2023-05-04T05:36:04.326Z,18.30
2023-05-04T05:38:31.263Z,19.20
2023-05-04T05:40:58.125Z,20.60
2023-05-04T05:43:25.119Z,17.50
2023-05-04T05:45:52.040Z,15.00
2023-05-04T05:48:18.974Z,11.70
2023-05-04T05:50:45.868Z,10.70
2023-05-04T05:53:12.747Z,7.60
2023-05-04T05:55:39.990Z,5.20
2023-05-04T05:58:06.966Z,5.60
2023-05-04T06:00:34.214Z,5.70
2023-05-04T06:03:01.237Z,5.00
2023-05-04T06:05:28.163Z,5.50
2023-05-04T06:07:55.039Z,6.40
2023-05-04T06:10:22.529Z,5.20
2023-05-04T06:12:49.505Z,4.30
2023-05-04T06:15:16.854Z,4.70
2023-05-04T06:17:43.729Z,5.90
2023-05-04T06:20:11.211Z,4.40
2023-05-04T06:22:38.141Z,7.60
2023-05-04T06:25:07.171Z,4.70
2023-05-04T06:27:35.196Z,7.10
2023-05-04T06:30:02.072Z,6.60
2023-05-04T06:32:29.091Z,7.00
2023-05-04T06:34:56.167Z,6.10
2023-05-04T06:37:23.431Z,8.10
2023-05-04T06:39:50.830Z,5.60
2023-05-04T06:42:18.113Z,8.00
2023-05-04T06:44:48.004Z,7.50
2023-05-04T06:47:15.951Z,5.50
2023-05-04T06:49:42.929Z,6.10
2023-05-04T06:52:10.639Z,5.40
2023-05-04T06:54:37.846Z,7.00
2023-05-04T06:57:04.965Z,6.60
2023-05-04T06:59:32.429Z,9.00
2023-05-04T07:01:59.320Z,7.90
2023-05-04T07:04:26.449Z,8.40
2023-05-04T07:06:53.650Z,6.60
2023-05-04T07:09:20.707Z,8.00
2023-05-04T07:11:49.306Z,8.10
2023-05-04T07:14:16.360Z,6.50
2023-05-04T07:16:43.432Z,8.60
2023-05-04T07:19:10.636Z,9.30
2023-05-04T07:21:37.673Z,6.30
2023-05-04T07:24:05.312Z,25.70
2023-05-04T07:26:32.251Z,5.50
2023-05-04T07:29:00.525Z,6.50
2023-05-04T07:31:30.271Z,6.40
2023-05-04T07:33:57.627Z,6.60
2023-05-04T07:36:26.711Z,8.70
2023-05-04T07:38:53.912Z,10.70
2023-05-04T07:41:20.965Z,15.20
2023-05-04T07:43:47.943Z,12.00
2023-05-04T07:46:15.062Z,12.20
2023-05-04T07:48:42.199Z,14.80
2023-05-04T07:51:12.908Z,16.70
2023-05-04T07:53:39.953Z,15.90
2023-05-04T07:56:13.384Z,13.60
2023-05-04T07:58:40.591Z,13.40
2023-05-04T08:01:07.744Z,13.60
2023-05-04T08:03:34.744Z,15.70
2023-05-04T08:06:02.167Z,15.00
2023-05-04T08:08:29.096Z,11.60
2023-05-04T08:11:01.990Z,16.00
2023-05-04T08:13:35.381Z,14.40
2023-05-04T08:16:02.326Z,15.10
2023-05-04T08:18:29.292Z,12.50
2023-05-04T08:20:56.668Z,30.30
2023-05-04T08:23:23.604Z,17.60
2023-05-04T08:25:50.542Z,13.50
2023-05-04T08:28:17.610Z,17.30
2023-05-04T08:30:44.522Z,10.30
2023-05-04T08:33:11.464Z,16.70
2023-05-04T08:35:38.476Z,14.60
2023-05-04T08:38:05.509Z,11.70
2023-05-04T08:40:33.298Z,14.00
2023-05-04T08:43:00.245Z,9.50
2023-05-04T08:45:27.652Z,16.00
2023-05-04T08:47:54.898Z,20.40
2023-05-04T08:50:22.099Z,17.00
2023-05-04T08:52:49.323Z,15.60
2023-05-04T08:55:17.327Z,14.60
2023-05-04T08:57:44.543Z,15.60
2023-05-04T09:00:12.332Z,13.80
2023-05-04T09:02:39.247Z,13.30
2023-05-04T09:05:08.359Z,15.00
2023-05-04T09:07:35.347Z,180.70
2023-05-04T09:10:03.253Z,14.00
2023-05-04T09:12:30.229Z,18.50
2023-05-04T09:14:57.165Z,15.50
2023-05-04T09:17:30.018Z,16.20
2023-05-04T09:20:00.052Z,16.20
2023-05-04T09:22:28.883Z,13.40
2023-05-04T09:25:07.803Z,14.40
2023-05-04T09:27:34.739Z,13.90
2023-05-04T09:30:01.821Z,12.70
2023-05-04T09:32:28.973Z,14.60
2023-05-04T09:34:55.976Z,9.80
2023-05-04T09:37:22.957Z,11.30
2023-05-04T09:39:51.638Z,10.80
2023-05-04T09:42:19.189Z,11.40
2023-05-04T09:44:46.058Z,11.20
2023-05-04T09:47:13.347Z,10.30
2023-05-04T09:49:40.459Z,14.10
2023-05-04T09:52:07.361Z,9.70
2023-05-04T09:54:39.188Z,10.70
2023-05-04T09:57:13.546Z,6.10
2023-05-04T09:59:40.461Z,6.70
2023-05-04T10:02:21.271Z,7.90
2023-05-04T10:04:49.519Z,6.40
2023-05-04T10:07:16.698Z,10.30
2023-05-04T10:09:43.610Z,8.00
2023-05-04T10:12:10.516Z,15.40
2023-05-04T10:14:37.485Z,4.10
2023-05-04T10:17:13.736Z,6.50
2023-05-04T10:19:44.095Z,5.60
2023-05-04T10:22:34.467Z,9.50
2023-05-04T10:25:01.633Z,5.60
2023-05-04T10:27:51.928Z,8.10
2023-05-04T10:30:19.051Z,7.30
2023-05-04T10:32:46.183Z,6.80
2023-05-04T10:35:14.446Z,6.70
2023-05-04T10:37:43.436Z,4.90
2023-05-04T10:40:11.073Z,7.50
2023-05-04T10:42:44.307Z,5.90
2023-05-04T10:47:40.790Z,5.10
2023-05-04T10:50:08.645Z,5.90
2023-05-04T10:52:48.416Z,2.90
2023-05-04T10:55:15.659Z,5.30
2023-05-04T10:57:53.302Z,4.90
2023-05-04T11:00:20.240Z,5.40
2023-05-04T11:02:47.941Z,7.60
2023-05-04T11:05:18.373Z,5.90
2023-05-04T11:07:45.435Z,5.70
2023-05-04T11:10:22.415Z,7.90
2023-05-04T11:12:49.427Z,6.80
2023-05-04T11:15:16.364Z,7.30
2023-05-04T11:17:46.888Z,9.30
2023-05-04T11:20:40.158Z,5.90
2023-05-04T11:23:10.450Z,4.70
2023-05-04T11:25:37.777Z,71.50
2023-05-04T11:28:04.925Z,4.80
2023-05-04T11:30:35.237Z,4.10
2023-05-04T11:33:11.970Z,4.40
2023-05-04T11:35:38.934Z,6.80
2023-05-04T11:38:07.132Z,5.00
2023-05-04T11:40:35.435Z,6.50
2023-05-04T11:43:02.620Z,8.00
2023-05-04T11:45:29.522Z,5.40
2023-05-04T11:47:56.938Z,8.40
2023-05-04T11:50:23.919Z,8.60
2023-05-04T11:52:50.893Z,7.20
2023-05-04T11:55:27.686Z,7.90
2023-05-04T11:58:01.449Z,7.90
2023-05-04T12:00:37.546Z,10.70
2023-05-04T12:03:06.027Z,4.60
2023-05-04T12:05:33.760Z,4.70
2023-05-04T12:08:01.084Z,3.60
2023-05-04T12:10:28.409Z,3.90
2023-05-04T12:12:55.446Z,3.60
2023-05-04T12:15:31.998Z,6.70
2023-05-04T12:18:01.809Z,6.10
2023-05-04T12:20:30.001Z,9.00
2023-05-04T12:22:57.377Z,4.30
2023-05-04T12:25:24.594Z,7.20
2023-05-04T12:27:51.642Z,4.60
2023-05-04T12:30:18.682Z,5.70
2023-05-04T12:32:46.001Z,6.80
2023-05-04T12:35:12.933Z,6.20
2023-05-04T12:37:39.952Z,10.80
2023-05-04T12:40:21.148Z,11.50
2023-05-04T12:42:55.033Z,5.20
2023-05-04T12:45:22.795Z,8.30
2023-05-04T12:47:49.744Z,8.30
2023-05-04T12:50:16.716Z,9.10
2023-05-04T12:52:43.652Z,5.20
2023-05-04T12:55:10.496Z,5.40
2023-05-04T12:57:37.926Z,5.20
2023-05-04T13:00:07.326Z,5.00
2023-05-04T13:02:34.421Z,6.60
2023-05-04T13:05:01.580Z,4.20
2023-05-04T13:07:28.928Z,7.50
2023-05-04T13:09:56.081Z,8.30
2023-05-04T13:12:23.321Z,6.70
2023-05-04T13:14:51.042Z,5.60
2023-05-04T13:17:18.375Z,7.20
2023-05-04T13:19:45.280Z,4.30
2023-05-04T13:22:13.198Z,5.40
2023-05-04T13:24:42.728Z,7.10
2023-05-04T13:27:09.784Z,10.70
2023-05-04T13:29:36.703Z,9.10
2023-05-04T13:32:03.714Z,14.10
2023-05-04T13:34:30.730Z,9.60
2023-05-04T13:36:57.801Z,88.60
2023-05-04T13:39:25.641Z,8.50
2023-05-04T13:41:52.723Z,11.90
2023-05-04T13:44:19.667Z,8.40
2023-05-04T13:46:46.584Z,7.80
2023-05-04T13:49:13.515Z,11.30
2023-05-04T13:51:40.407Z,11.10
2023-05-04T13:54:07.373Z,7.10
2023-05-04T13:56:34.284Z,6.00
2023-05-04T13:59:01.152Z,8.80
2023-05-04T14:01:28.173Z,7.00
2023-05-04T14:03:55.205Z,6.70
2023-05-04T14:06:22.195Z,3.50
2023-05-04T14:08:49.050Z,4.40
2023-05-04T14:11:15.948Z,2.80
2023-05-04T14:13:42.865Z,2.40
2023-05-04T14:16:09.771Z,7.50
2023-05-04T14:18:37.164Z,2.40
2023-05-04T14:21:04.140Z,2.40
2023-05-04T14:23:31.023Z,3.50
2023-05-04T14:25:57.912Z,3.80
2023-05-04T14:28:24.791Z,6.90
2023-05-04T14:30:51.772Z,4.80
2023-05-04T14:33:18.761Z,6.90
2023-05-04T14:35:48.102Z,4.10
2023-05-04T14:38:15.465Z,4.10
2023-05-04T14:40:42.744Z,4.20
2023-05-04T14:43:10.079Z,5.20
2023-05-04T14:45:36.997Z,5.70
2023-05-04T14:48:04.529Z,3.60
2023-05-04T14:50:31.468Z,6.50
2023-05-04T14:52:58.333Z,5.10
2023-05-04T14:55:25.410Z,4.20
2023-05-04T14:57:52.384Z,4.20
2023-05-04T15:00:20.095Z,7.10
2023-05-04T15:02:47.131Z,9.20
2023-05-04T15:05:14.122Z,6.80
2023-05-04T15:07:41.268Z,4.90
2023-05-04T15:10:09.451Z,5.70
2023-05-04T15:12:37.953Z,12.80
2023-05-04T15:15:05.195Z,14.10
2023-05-04T15:17:32.204Z,6.90
2023-05-04T15:20:00.874Z,4.50
2023-05-04T15:22:28.287Z,4.80
2023-05-04T15:24:55.791Z,6.30
2023-05-04T15:27:22.831Z,4.90
2023-05-04T15:29:49.731Z,4.50
2023-05-04T15:32:16.671Z,5.60
2023-05-04T15:34:48.183Z,57.70
2023-05-04T15:37:27.817Z,8.00
2023-05-04T15:39:55.069Z,5.70
2023-05-04T15:42:21.946Z,6.50
2023-05-04T15:44:48.839Z,4.10
2023-05-04T15:47:16.100Z,5.90
2023-05-04T15:49:43.178Z,5.40
2023-05-04T15:52:10.887Z,4.80
2023-05-04T15:54:37.843Z,3.30
2023-05-04T15:57:04.809Z,5.10
2023-05-04T15:59:31.750Z,3.90
2023-05-04T16:01:58.718Z,3.20
2023-05-04T16:04:25.602Z,2.90
2023-05-04T16:06:52.535Z,3.90
2023-05-04T16:09:20.863Z,4.60
2023-05-04T16:11:47.708Z,4.10
2023-05-04T16:14:15.626Z,4.20
2023-05-04T16:16:42.775Z,3.20
2023-05-04T16:19:11.598Z,3.90
2023-05-04T16:21:38.904Z,4.10
2023-05-04T16:24:07.835Z,5.40
2023-05-04T16:26:34.703Z,4.00
2023-05-04T16:29:01.762Z,5.70
2023-05-04T16:31:28.919Z,7.70
2023-05-04T16:33:56.403Z,4.80
2023-05-04T16:36:23.327Z,4.60
2023-05-04T16:38:50.376Z,2.70
2023-05-04T16:41:17.713Z,4.20
2023-05-04T16:43:44.805Z,6.20
2023-05-04T16:46:12.352Z,5.10
2023-05-04T16:48:40.293Z,4.60
2023-05-04T16:51:08.371Z,4.20
2023-05-04T16:53:35.506Z,6.40
2023-05-04T16:56:02.438Z,6.00
2023-05-04T16:58:29.656Z,12.90
2023-05-04T17:02:14.251Z,13.00
2023-05-04T17:04:41.138Z,10.10
2023-05-04T17:07:10.686Z,11.60
2023-05-04T17:09:37.834Z,9.70
2023-05-04T17:12:05.569Z,10.30
2023-05-04T17:14:32.469Z,16.30
2023-05-04T17:16:59.372Z,15.90
2023-05-04T17:19:26.302Z,16.10
2023-05-04T17:21:53.217Z,18.40
2023-05-04T17:24:20.136Z,18.50
2023-05-04T17:26:48.149Z,22.60
2023-05-04T17:29:15.144Z,28.70
2023-05-04T17:31:42.051Z,25.50
2023-05-04T17:34:09.035Z,23.10
2023-05-04T17:36:36.070Z,16.80
2023-05-04T17:39:03.797Z,16.10
2023-05-04T17:41:31.402Z,29.20
2023-05-04T17:43:58.321Z,32.50
2023-05-04T17:46:25.370Z,32.70
2023-05-04T17:48:53.381Z,36.00
2023-05-04T17:51:20.776Z,37.40
2023-05-04T17:53:47.604Z,50.70
2023-05-04T17:56:14.531Z,54.40
2023-05-04T17:58:41.451Z,46.80
2023-05-04T18:01:08.318Z,73.10
2023-05-04T18:03:35.343Z,72.60
2023-05-04T18:06:02.788Z,51.30
2023-05-04T18:08:29.700Z,46.00
2023-05-04T18:10:56.858Z,27.60
2023-05-04T18:13:23.820Z,36.00
2023-05-04T18:15:51.149Z,27.00
2023-05-04T18:18:18.160Z,23.90
2023-05-04T18:20:45.078Z,17.60
2023-05-04T18:23:11.943Z,26.00
2023-05-04T18:25:38.848Z,16.60
2023-05-04T18:28:08.854Z,48.70
2023-05-04T18:30:36.128Z,37.20
2023-05-04T18:33:03.246Z,31.70
2023-05-04T18:35:30.215Z,20.70
2023-05-04T18:37:57.047Z,28.60
2023-05-04T18:40:24.439Z,18.80
2023-05-04T18:42:51.299Z,16.50
2023-05-04T18:45:18.173Z,11.50
2023-05-04T18:47:45.126Z,14.10
2023-05-04T18:50:12.077Z,13.50
2023-05-04T18:52:39.005Z,12.40
2023-05-04T18:55:06.261Z,7.70
2023-05-04T18:57:33.142Z,13.10
2023-05-04T19:00:00.088Z,10.80
2023-05-04T19:02:30.188Z,12.60
2023-05-04T19:04:58.520Z,9.60
2023-05-04T19:07:25.498Z,6.60
2023-05-04T19:09:53.418Z,14.80
2023-05-04T19:12:20.368Z,12.70
2023-05-04T19:14:47.498Z,18.00
2023-05-04T19:17:18.476Z,16.90
2023-05-04T19:19:45.514Z,18.90
2023-05-04T19:22:13.469Z,19.40
2023-05-04T19:24:40.738Z,23.70
2023-05-04T19:27:08.085Z,15.40
2023-05-04T19:29:34.981Z,15.90
2023-05-04T19:32:08.804Z,5.60
2023-05-04T19:34:43.461Z,4.90
2023-05-04T19:37:10.445Z,6.20
2023-05-04T19:39:37.343Z,11.50
2023-05-04T19:42:04.260Z,7.70
2023-05-04T19:44:31.201Z,6.60
2023-05-04T19:46:58.100Z,13.70
2023-05-04T19:49:25.376Z,11.90
2023-05-04T19:51:52.456Z,8.20
2023-05-04T19:54:19.331Z,8.90
2023-05-04T19:56:46.429Z,7.90
2023-05-04T19:59:13.624Z,10.50
2023-05-04T20:01:40.549Z,9.80
2023-05-04T20:04:08.514Z,8.90
2023-05-04T20:06:36.092Z,9.10
2023-05-04T20:09:03.861Z,5.90
2023-05-04T20:11:31.000Z,6.80
2023-05-04T20:13:58.524Z,9.30
2023-05-04T20:16:25.717Z,7.80
2023-05-04T20:18:52.699Z,7.20
2023-05-04T20:21:19.710Z,9.80
2023-05-04T20:23:46.558Z,7.00
2023-05-04T20:26:13.442Z,7.50
2023-05-04T20:28:40.647Z,6.00
2023-05-04T20:31:08.513Z,12.30
2023-05-04T20:33:36.159Z,11.50
2023-05-04T20:36:03.847Z,12.40
2023-05-04T20:38:30.726Z,9.80
2023-05-04T20:40:57.617Z,11.70
2023-05-04T20:43:24.504Z,12.10
2023-05-04T20:45:53.555Z,16.10
2023-05-04T20:48:20.524Z,17.00
2023-05-04T20:50:47.970Z,59.00
2023-05-04T20:53:15.692Z,64.20
2023-05-04T20:55:43.613Z,63.90
2023-05-04T20:58:10.522Z,34.40
2023-05-04T21:00:37.459Z,29.90
2023-05-04T21:03:04.436Z,27.50
2023-05-04T21:05:31.428Z,28.50
2023-05-04T21:07:58.329Z,32.00
2023-05-04T21:10:25.291Z,53.50
2023-05-04T21:12:52.244Z,108.60
2023-05-04T21:15:19.200Z,163.40
2023-05-04T21:17:46.942Z,195.20
2023-05-04T21:20:13.932Z,167.60
2023-05-04T21:22:40.744Z,162.00
2023-05-04T21:25:07.853Z,172.10
2023-05-04T21:27:34.769Z,106.60
2023-05-04T21:30:03.708Z,120.40
2023-05-04T21:32:30.993Z,108.70
2023-05-04T21:34:57.916Z,83.00
2023-05-04T21:37:24.743Z,84.50
2023-05-04T21:39:55.849Z,49.80
2023-05-04T21:42:23.146Z,41.80
2023-05-04T21:44:53.469Z,52.10
2023-05-04T21:47:20.561Z,36.70
2023-05-04T21:49:47.506Z,40.10
2023-05-04T21:52:14.346Z,32.00
2023-05-04T21:54:41.321Z,31.30
2023-05-04T21:57:08.228Z,28.80
2023-05-04T21:59:35.056Z,22.20
2023-05-04T22:02:03.475Z,22.10
2023-05-04T22:04:30.484Z,20.70
2023-05-04T22:06:57.452Z,17.00
2023-05-04T22:09:24.654Z,16.20
2023-05-04T22:11:52.459Z,29.00
2023-05-04T22:14:19.346Z,24.50
2023-05-04T22:16:46.648Z,27.80
2023-05-04T22:19:13.788Z,53.00
2023-05-04T22:21:40.733Z,69.40
2023-05-04T22:24:07.685Z,69.40
2023-05-04T22:26:34.585Z,73.90
2023-05-04T22:29:01.418Z,64.80
2023-05-04T22:31:28.364Z,43.50
2023-05-04T22:33:55.643Z,28.40
2023-05-04T22:36:22.613Z,19.10
2023-05-04T22:38:50.943Z,15.10
2023-05-04T22:41:18.120Z,14.20
2023-05-04T22:43:44.950Z,11.30
2023-05-04T22:46:18.168Z,8.00
2023-05-04T22:48:48.166Z,11.60
2023-05-04T22:51:15.044Z,12.30
2023-05-04T22:53:41.902Z,9.60
2023-05-04T22:56:09.022Z,10.60
2023-05-04T22:58:35.927Z,23.40
2023-05-04T23:01:03.008Z,23.70
2023-05-04T23:03:30.016Z,24.80
2023-05-04T23:05:58.910Z,21.70
2023-05-04T23:08:26.506Z,26.80
2023-05-04T23:10:53.392Z,23.40
2023-05-04T23:13:20.279Z,23.00
2023-05-04T23:15:47.277Z,17.30
2023-05-04T23:18:14.146Z,17.40
2023-05-04T23:20:41.083Z,18.80
2023-05-04T23:23:07.990Z,18.70
2023-05-04T23:25:34.925Z,20.00
2023-05-04T23:28:01.869Z,17.70
2023-05-04T23:30:28.761Z,14.70
2023-05-04T23:32:55.816Z,13.10
2023-05-04T23:35:22.773Z,12.30
2023-05-04T23:37:49.666Z,13.70
2023-05-04T23:40:16.599Z,16.80
2023-05-04T23:42:43.478Z,12.90
2023-05-04T23:45:10.626Z,16.00
2023-05-04T23:47:37.560Z,12.20
2023-05-04T23:50:05.010Z,12.80
2023-05-04T23:52:33.204Z,10.10
2023-05-04T23:55:00.232Z,12.00
2023-05-04T23:57:27.132Z,11.20
2023-05-04T23:59:54.052Z,12.90
